sensor_id;sensor_type;location;lat;lon;timestamp;P1;durP1;ratioP1;P2;durP2;ratioP2
82554;SDS011;72219;48.186;11.554;2023-11-18T00:00:03;3.08;;;1.95;;
82554;SDS011;72219;48.186;11.554;2023-11-18T00:02:36;3.63;;;2.55;;
82554;SDS011;72219;48.186;11.554;2023-11-18T00:05:01;2.53;;;1.80;;
82554;SDS011;72219;48.186;11.554;2023-11-18T00:07:26;2.45;;;1.77;;
82554;SDS011;72219;48.186;11.554;2023-11-18T00:09:54;3.60;;;2.58;;
82554;SDS011;72219;48.186;11.554;2023-11-18T00:12:19;3.85;;;2.25;;
82554;SDS011;72219;48.186;11.554;2023-11-18T00:14:44;2.53;;;1.75;;
82554;SDS011;72219;48.186;11.554;2023-11-18T00:17:10;4.15;;;2.58;;
82554;SDS011;72219;48.186;11.554;2023-11-18T00:19:37;2.20;;;1.80;;
82554;SDS011;72219;48.186;11.554;2023-11-18T00:22:02;3.33;;;1.90;;
82554;SDS011;72219;48.186;11.554;2023-11-18T00:24:28;4.72;;;2.08;;
82554;SDS011;72219;48.186;11.554;2023-11-18T00:26:54;5.05;;;2.35;;
82554;SDS011;72219;48.186;11.554;2023-11-18T00:29:20;2.35;;;1.80;;
82554;SDS011;72219;48.186;11.554;2023-11-18T00:31:47;2.72;;;1.80;;
82554;SDS011;72219;48.186;11.554;2023-11-18T00:34:12;3.10;;;1.83;;
82554;SDS011;72219;48.186;11.554;2023-11-18T00:36:37;2.17;;;1.85;;
82554;SDS011;72219;48.186;11.554;2023-11-18T00:39:03;3.03;;;2.30;;
82554;SDS011;72219;48.186;11.554;2023-11-18T00:41:29;3.58;;;2.25;;
82554;SDS011;72219;48.186;11.554;2023-11-18T00:43:55;3.33;;;1.95;;
82554;SDS011;72219;48.186;11.554;2023-11-18T00:46:21;3.58;;;2.17;;
82554;SDS011;72219;48.186;11.554;2023-11-18T00:48:47;2.85;;;2.03;;
82554;SDS011;72219;48.186;11.554;2023-11-18T00:51:12;4.80;;;1.92;;
82554;SDS011;72219;48.186;11.554;2023-11-18T00:53:38;2.30;;;1.73;;
82554;SDS011;72219;48.186;11.554;2023-11-18T00:56:04;2.72;;;2.03;;
82554;SDS011;72219;48.186;11.554;2023-11-18T00:58:33;5.18;;;2.22;;
82554;SDS011;72219;48.186;11.554;2023-11-18T01:01:04;1.95;;;1.70;;
82554;SDS011;72219;48.186;11.554;2023-11-18T01:03:32;2.15;;;1.75;;
82554;SDS011;72219;48.186;11.554;2023-11-18T01:05:59;3.75;;;2.22;;
82554;SDS011;72219;48.186;11.554;2023-11-18T01:08:25;2.40;;;1.88;;
82554;SDS011;72219;48.186;11.554;2023-11-18T01:10:51;2.78;;;2.10;;
82554;SDS011;72219;48.186;11.554;2023-11-18T01:13:16;2.47;;;2.05;;
82554;SDS011;72219;48.186;11.554;2023-11-18T01:15:41;2.83;;;1.85;;
82554;SDS011;72219;48.186;11.554;2023-11-18T01:18:07;2.88;;;1.98;;
82554;SDS011;72219;48.186;11.554;2023-11-18T01:20:32;3.70;;;2.13;;
82554;SDS011;72219;48.186;11.554;2023-11-18T01:22:58;3.13;;;1.92;;
82554;SDS011;72219;48.186;11.554;2023-11-18T01:25:24;2.20;;;1.55;;
82554;SDS011;72219;48.186;11.554;2023-11-18T01:27:50;3.38;;;2.30;;
82554;SDS011;72219;48.186;11.554;2023-11-18T01:30:15;5.53;;;1.90;;
82554;SDS011;72219;48.186;11.554;2023-11-18T01:32:41;1.90;;;1.67;;
82554;SDS011;72219;48.186;11.554;2023-11-18T01:35:06;3.33;;;1.98;;
82554;SDS011;72219;48.186;11.554;2023-11-18T01:37:33;2.97;;;1.88;;
82554;SDS011;72219;48.186;11.554;2023-11-18T01:40:00;2.08;;;1.88;;
82554;SDS011;72219;48.186;11.554;2023-11-18T01:42:30;3.60;;;2.00;;
82554;SDS011;72219;48.186;11.554;2023-11-18T01:44:56;3.17;;;2.45;;
82554;SDS011;72219;48.186;11.554;2023-11-18T01:47:21;3.15;;;1.77;;
82554;SDS011;72219;48.186;11.554;2023-11-18T01:49:48;2.88;;;1.83;;
82554;SDS011;72219;48.186;11.554;2023-11-18T01:52:14;1.63;;;1.52;;
82554;SDS011;72219;48.186;11.554;2023-11-18T01:54:41;1.60;;;1.50;;
82554;SDS011;72219;48.186;11.554;2023-11-18T01:57:09;3.15;;;1.90;;
82554;SDS011;72219;48.186;11.554;2023-11-18T01:59:35;3.55;;;1.88;;
82554;SDS011;72219;48.186;11.554;2023-11-18T02:02:03;1.85;;;1.60;;
82554;SDS011;72219;48.186;11.554;2023-11-18T02:04:29;2.63;;;1.80;;
82554;SDS011;72219;48.186;11.554;2023-11-18T02:06:56;3.33;;;1.85;;
82554;SDS011;72219;48.186;11.554;2023-11-18T02:09:23;2.45;;;1.70;;
82554;SDS011;72219;48.186;11.554;2023-11-18T02:15:02;2.83;;;2.05;;
82554;SDS011;72219;48.186;11.554;2023-11-18T02:17:38;2.33;;;1.73;;
82554;SDS011;72219;48.186;11.554;2023-11-18T02:20:03;2.60;;;1.80;;
82554;SDS011;72219;48.186;11.554;2023-11-18T02:22:40;1.98;;;1.50;;
82554;SDS011;72219;48.186;11.554;2023-11-18T02:25:09;2.47;;;1.70;;
82554;SDS011;72219;48.186;11.554;2023-11-18T02:27:36;1.98;;;1.77;;
82554;SDS011;72219;48.186;11.554;2023-11-18T02:30:04;2.35;;;1.77;;
82554;SDS011;72219;48.186;11.554;2023-11-18T02:32:33;2.35;;;1.65;;
82554;SDS011;72219;48.186;11.554;2023-11-18T02:35:37;2.10;;;1.85;;
82554;SDS011;72219;48.186;11.554;2023-11-18T02:38:08;3.05;;;2.10;;
82554;SDS011;72219;48.186;11.554;2023-11-18T02:40:36;2.20;;;1.60;;
82554;SDS011;72219;48.186;11.554;2023-11-18T02:43:08;2.00;;;1.63;;
82554;SDS011;72219;48.186;11.554;2023-11-18T02:45:36;3.38;;;1.88;;
82554;SDS011;72219;48.186;11.554;2023-11-18T02:48:03;2.72;;;2.00;;
82554;SDS011;72219;48.186;11.554;2023-11-18T02:50:31;1.95;;;1.75;;
82554;SDS011;72219;48.186;11.554;2023-11-18T02:52:56;2.53;;;1.77;;
82554;SDS011;72219;48.186;11.554;2023-11-18T02:55:22;2.42;;;1.60;;
82554;SDS011;72219;48.186;11.554;2023-11-18T02:57:48;2.63;;;1.85;;
82554;SDS011;72219;48.186;11.554;2023-11-18T03:00:17;2.33;;;1.67;;
82554;SDS011;72219;48.186;11.554;2023-11-18T03:02:51;1.92;;;1.50;;
82554;SDS011;72219;48.186;11.554;2023-11-18T03:05:17;2.03;;;1.52;;
82554;SDS011;72219;48.186;11.554;2023-11-18T03:07:43;2.40;;;1.77;;
82554;SDS011;72219;48.186;11.554;2023-11-18T03:10:09;1.73;;;1.33;;
82554;SDS011;72219;48.186;11.554;2023-11-18T03:12:45;3.58;;;1.40;;
82554;SDS011;72219;48.186;11.554;2023-11-18T03:15:12;3.08;;;1.63;;
82554;SDS011;72219;48.186;11.554;2023-11-18T03:17:38;1.73;;;1.50;;
82554;SDS011;72219;48.186;11.554;2023-11-18T03:20:05;2.53;;;1.58;;
82554;SDS011;72219;48.186;11.554;2023-11-18T03:22:32;2.08;;;1.75;;
82554;SDS011;72219;48.186;11.554;2023-11-18T03:24:58;2.65;;;1.40;;
82554;SDS011;72219;48.186;11.554;2023-11-18T03:27:23;1.40;;;1.10;;
82554;SDS011;72219;48.186;11.554;2023-11-18T03:29:48;1.95;;;1.52;;
82554;SDS011;72219;48.186;11.554;2023-11-18T03:32:14;2.13;;;1.60;;
82554;SDS011;72219;48.186;11.554;2023-11-18T03:34:40;3.22;;;1.70;;
82554;SDS011;72219;48.186;11.554;2023-11-18T03:37:05;2.00;;;1.38;;
82554;SDS011;72219;48.186;11.554;2023-11-18T03:39:31;2.20;;;1.40;;
82554;SDS011;72219;48.186;11.554;2023-11-18T03:41:57;2.20;;;1.42;;
82554;SDS011;72219;48.186;11.554;2023-11-18T03:44:23;2.65;;;1.55;;
82554;SDS011;72219;48.186;11.554;2023-11-18T03:46:51;2.38;;;1.60;;
82554;SDS011;72219;48.186;11.554;2023-11-18T03:49:17;1.50;;;1.40;;
82554;SDS011;72219;48.186;11.554;2023-11-18T03:51:43;2.40;;;1.70;;
82554;SDS011;72219;48.186;11.554;2023-11-18T03:54:08;1.88;;;1.45;;
82554;SDS011;72219;48.186;11.554;2023-11-18T03:56:34;2.28;;;2.08;;
82554;SDS011;72219;48.186;11.554;2023-11-18T03:59:00;2.72;;;1.50;;
82554;SDS011;72219;48.186;11.554;2023-11-18T04:01:25;1.35;;;1.17;;
82554;SDS011;72219;48.186;11.554;2023-11-18T04:03:52;2.58;;;1.60;;
82554;SDS011;72219;48.186;11.554;2023-11-18T04:06:18;1.90;;;1.27;;
82554;SDS011;72219;48.186;11.554;2023-11-18T04:08:46;2.40;;;1.60;;
82554;SDS011;72219;48.186;11.554;2023-11-18T04:11:15;1.85;;;1.50;;
82554;SDS011;72219;48.186;11.554;2023-11-18T04:13:41;2.40;;;1.63;;
82554;SDS011;72219;48.186;11.554;2023-11-18T04:16:10;2.33;;;1.60;;
82554;SDS011;72219;48.186;11.554;2023-11-18T04:18:44;1.40;;;1.30;;
82554;SDS011;72219;48.186;11.554;2023-11-18T04:21:11;2.38;;;1.77;;
82554;SDS011;72219;48.186;11.554;2023-11-18T04:23:38;1.80;;;1.50;;
82554;SDS011;72219;48.186;11.554;2023-11-18T04:26:05;2.47;;;1.63;;
82554;SDS011;72219;48.186;11.554;2023-11-18T04:28:30;2.50;;;1.80;;
82554;SDS011;72219;48.186;11.554;2023-11-18T04:30:56;2.10;;;1.30;;
82554;SDS011;72219;48.186;11.554;2023-11-18T04:33:21;1.33;;;1.23;;
82554;SDS011;72219;48.186;11.554;2023-11-18T04:35:49;2.00;;;1.42;;
82554;SDS011;72219;48.186;11.554;2023-11-18T04:38:15;2.45;;;1.58;;
82554;SDS011;72219;48.186;11.554;2023-11-18T04:40:43;1.45;;;1.35;;
82554;SDS011;72219;48.186;11.554;2023-11-18T04:43:11;1.50;;;1.35;;
82554;SDS011;72219;48.186;11.554;2023-11-18T04:45:36;1.48;;;1.38;;
82554;SDS011;72219;48.186;11.554;2023-11-18T04:48:02;2.05;;;1.33;;
82554;SDS011;72219;48.186;11.554;2023-11-18T04:50:29;1.48;;;1.38;;
82554;SDS011;72219;48.186;11.554;2023-11-18T04:52:57;1.80;;;1.35;;
82554;SDS011;72219;48.186;11.554;2023-11-18T04:55:23;4.18;;;1.42;;
82554;SDS011;72219;48.186;11.554;2023-11-18T04:57:51;1.40;;;1.30;;
82554;SDS011;72219;48.186;11.554;2023-11-18T05:00:19;1.85;;;1.55;;
82554;SDS011;72219;48.186;11.554;2023-11-18T05:02:45;1.35;;;1.25;;
82554;SDS011;72219;48.186;11.554;2023-11-18T05:05:12;1.65;;;1.30;;
82554;SDS011;72219;48.186;11.554;2023-11-18T05:07:39;2.40;;;1.63;;
82554;SDS011;72219;48.186;11.554;2023-11-18T05:10:06;2.35;;;1.35;;
82554;SDS011;72219;48.186;11.554;2023-11-18T05:12:38;2.30;;;1.75;;
82554;SDS011;72219;48.186;11.554;2023-11-18T05:15:05;1.17;;;1.08;;
82554;SDS011;72219;48.186;11.554;2023-11-18T05:17:32;2.13;;;1.50;;
82554;SDS011;72219;48.186;11.554;2023-11-18T05:20:00;1.85;;;1.40;;
82554;SDS011;72219;48.186;11.554;2023-11-18T05:22:27;1.48;;;1.25;;
82554;SDS011;72219;48.186;11.554;2023-11-18T05:24:56;2.75;;;1.52;;
82554;SDS011;72219;48.186;11.554;2023-11-18T05:27:22;1.48;;;1.23;;
82554;SDS011;72219;48.186;11.554;2023-11-18T05:29:51;1.98;;;1.60;;
82554;SDS011;72219;48.186;11.554;2023-11-18T05:32:20;1.52;;;1.20;;
82554;SDS011;72219;48.186;11.554;2023-11-18T05:34:46;1.83;;;1.50;;
82554;SDS011;72219;48.186;11.554;2023-11-18T05:37:15;2.45;;;1.50;;
82554;SDS011;72219;48.186;11.554;2023-11-18T05:39:43;1.70;;;1.30;;
82554;SDS011;72219;48.186;11.554;2023-11-18T05:42:09;1.15;;;1.05;;
82554;SDS011;72219;48.186;11.554;2023-11-18T05:44:36;1.58;;;1.27;;
82554;SDS011;72219;48.186;11.554;2023-11-18T05:47:04;0.90;;;0.90;;
82554;SDS011;72219;48.186;11.554;2023-11-18T05:49:30;1.75;;;1.45;;
82554;SDS011;72219;48.186;11.554;2023-11-18T05:51:55;1.73;;;1.40;;
82554;SDS011;72219;48.186;11.554;2023-11-18T05:54:21;1.88;;;1.27;;
82554;SDS011;72219;48.186;11.554;2023-11-18T05:56:49;2.10;;;1.73;;
82554;SDS011;72219;48.186;11.554;2023-11-18T05:59:15;1.45;;;1.30;;
82554;SDS011;72219;48.186;11.554;2023-11-18T06:01:40;1.40;;;1.30;;
82554;SDS011;72219;48.186;11.554;2023-11-18T06:04:06;2.22;;;1.38;;
82554;SDS011;72219;48.186;11.554;2023-11-18T06:06:35;1.73;;;1.20;;
82554;SDS011;72219;48.186;11.554;2023-11-18T06:09:02;1.30;;;1.17;;
82554;SDS011;72219;48.186;11.554;2023-11-18T06:11:33;1.85;;;1.20;;
82554;SDS011;72219;48.186;11.554;2023-11-18T06:14:00;1.25;;;1.15;;
82554;SDS011;72219;48.186;11.554;2023-11-18T06:16:26;1.65;;;1.30;;
82554;SDS011;72219;48.186;11.554;2023-11-18T06:18:52;2.60;;;1.20;;
82554;SDS011;72219;48.186;11.554;2023-11-18T06:21:19;2.67;;;1.63;;
82554;SDS011;72219;48.186;11.554;2023-11-18T06:23:49;5.07;;;1.35;;
82554;SDS011;72219;48.186;11.554;2023-11-18T06:26:14;2.67;;;1.42;;
82554;SDS011;72219;48.186;11.554;2023-11-18T06:28:41;2.88;;;1.20;;
82554;SDS011;72219;48.186;11.554;2023-11-18T06:31:07;1.58;;;1.20;;
82554;SDS011;72219;48.186;11.554;2023-11-18T06:33:40;1.25;;;1.15;;
82554;SDS011;72219;48.186;11.554;2023-11-18T06:38:50;3.85;;;1.02;;
82554;SDS011;72219;48.186;11.554;2023-11-18T06:41:19;1.85;;;1.05;;
82554;SDS011;72219;48.186;11.554;2023-11-18T06:43:48;2.13;;;1.20;;
82554;SDS011;72219;48.186;11.554;2023-11-18T06:46:20;3.28;;;1.33;;
82554;SDS011;72219;48.186;11.554;2023-11-18T06:48:48;1.48;;;1.05;;
82554;SDS011;72219;48.186;11.554;2023-11-18T06:51:14;1.35;;;0.93;;
82554;SDS011;72219;48.186;11.554;2023-11-18T06:53:45;1.50;;;1.02;;
82554;SDS011;72219;48.186;11.554;2023-11-18T06:56:11;2.08;;;1.02;;
82554;SDS011;72219;48.186;11.554;2023-11-18T06:58:41;1.10;;;0.90;;
82554;SDS011;72219;48.186;11.554;2023-11-18T07:01:07;1.23;;;1.00;;
82554;SDS011;72219;48.186;11.554;2023-11-18T07:03:34;1.27;;;1.17;;
82554;SDS011;72219;48.186;11.554;2023-11-18T07:06:01;1.17;;;0.98;;
82554;SDS011;72219;48.186;11.554;2023-11-18T07:08:30;1.80;;;0.98;;
82554;SDS011;72219;48.186;11.554;2023-11-18T07:10:56;1.48;;;1.23;;
82554;SDS011;72219;48.186;11.554;2023-11-18T07:13:23;1.80;;;1.30;;
82554;SDS011;72219;48.186;11.554;2023-11-18T07:15:49;0.90;;;0.90;;
82554;SDS011;72219;48.186;11.554;2023-11-18T07:18:15;1.17;;;1.00;;
82554;SDS011;72219;48.186;11.554;2023-11-18T07:20:43;1.40;;;1.30;;
82554;SDS011;72219;48.186;11.554;2023-11-18T07:23:08;1.20;;;1.08;;
82554;SDS011;72219;48.186;11.554;2023-11-18T07:25:34;1.55;;;1.08;;
82554;SDS011;72219;48.186;11.554;2023-11-18T07:27:59;1.45;;;0.85;;
82554;SDS011;72219;48.186;11.554;2023-11-18T07:30:25;1.50;;;1.20;;
82554;SDS011;72219;48.186;11.554;2023-11-18T07:32:52;1.27;;;1.17;;
82554;SDS011;72219;48.186;11.554;2023-11-18T07:35:17;1.88;;;1.30;;
82554;SDS011;72219;48.186;11.554;2023-11-18T07:37:44;1.20;;;0.98;;
82554;SDS011;72219;48.186;11.554;2023-11-18T07:40:09;0.90;;;0.90;;
82554;SDS011;72219;48.186;11.554;2023-11-18T07:42:37;1.17;;;1.02;;
82554;SDS011;72219;48.186;11.554;2023-11-18T07:45:03;0.82;;;0.82;;
82554;SDS011;72219;48.186;11.554;2023-11-18T07:47:32;1.08;;;0.90;;
82554;SDS011;72219;48.186;11.554;2023-11-18T07:49:59;1.88;;;1.15;;
82554;SDS011;72219;48.186;11.554;2023-11-18T07:52:29;2.28;;;1.67;;
82554;SDS011;72219;48.186;11.554;2023-11-18T07:54:54;1.20;;;1.10;;
82554;SDS011;72219;48.186;11.554;2023-11-18T07:57:19;1.73;;;1.10;;
82554;SDS011;72219;48.186;11.554;2023-11-18T07:59:45;1.40;;;0.90;;
82554;SDS011;72219;48.186;11.554;2023-11-18T08:02:10;1.67;;;1.20;;
82554;SDS011;72219;48.186;11.554;2023-11-18T08:04:36;2.78;;;1.23;;
82554;SDS011;72219;48.186;11.554;2023-11-18T08:07:01;1.33;;;1.13;;
82554;SDS011;72219;48.186;11.554;2023-11-18T08:09:29;1.77;;;1.17;;
82554;SDS011;72219;48.186;11.554;2023-11-18T08:11:57;1.35;;;1.02;;
82554;SDS011;72219;48.186;11.554;2023-11-18T08:14:23;0.90;;;0.80;;
82554;SDS011;72219;48.186;11.554;2023-11-18T08:16:50;1.67;;;1.02;;
82554;SDS011;72219;48.186;11.554;2023-11-18T08:19:16;0.73;;;0.73;;
82554;SDS011;72219;48.186;11.554;2023-11-18T08:21:42;3.15;;;1.15;;
82554;SDS011;72219;48.186;11.554;2023-11-18T08:24:08;1.17;;;1.05;;
82554;SDS011;72219;48.186;11.554;2023-11-18T08:26:36;4.35;;;1.10;;
82554;SDS011;72219;48.186;11.554;2023-11-18T08:29:01;0.90;;;0.88;;
82554;SDS011;72219;48.186;11.554;2023-11-18T08:31:27;2.25;;;0.80;;
82554;SDS011;72219;48.186;11.554;2023-11-18T08:33:52;3.92;;;1.30;;
82554;SDS011;72219;48.186;11.554;2023-11-18T08:36:20;2.47;;;1.10;;
82554;SDS011;72219;48.186;11.554;2023-11-18T08:38:52;3.95;;;1.13;;
82554;SDS011;72219;48.186;11.554;2023-11-18T08:41:17;1.75;;;1.23;;
82554;SDS011;72219;48.186;11.554;2023-11-18T08:43:45;2.13;;;1.10;;
82554;SDS011;72219;48.186;11.554;2023-11-18T08:46:12;2.28;;;1.10;;
82554;SDS011;72219;48.186;11.554;2023-11-18T08:48:39;1.52;;;1.02;;
82554;SDS011;72219;48.186;11.554;2023-11-18T08:51:07;5.25;;;1.05;;
82554;SDS011;72219;48.186;11.554;2023-11-18T08:53:33;2.15;;;1.08;;
82554;SDS011;72219;48.186;11.554;2023-11-18T08:56:07;3.20;;;1.10;;
82554;SDS011;72219;48.186;11.554;2023-11-18T08:58:38;1.75;;;1.10;;
82554;SDS011;72219;48.186;11.554;2023-11-18T09:01:05;1.48;;;0.93;;
82554;SDS011;72219;48.186;11.554;2023-11-18T09:03:40;4.38;;;0.90;;
82554;SDS011;72219;48.186;11.554;2023-11-18T09:06:13;1.52;;;0.98;;
82554;SDS011;72219;48.186;11.554;2023-11-18T09:08:44;2.67;;;0.90;;
82554;SDS011;72219;48.186;11.554;2023-11-18T09:11:14;1.17;;;1.00;;
82554;SDS011;72219;48.186;11.554;2023-11-18T09:13:41;0.70;;;0.70;;
82554;SDS011;72219;48.186;11.554;2023-11-18T09:16:09;2.33;;;0.77;;
82554;SDS011;72219;48.186;11.554;2023-11-18T09:18:40;1.30;;;0.82;;
82554;SDS011;72219;48.186;11.554;2023-11-18T09:21:08;0.95;;;0.88;;
82554;SDS011;72219;48.186;11.554;2023-11-18T09:23:39;1.27;;;1.00;;
82554;SDS011;72219;48.186;11.554;2023-11-18T09:26:05;1.25;;;1.00;;
82554;SDS011;72219;48.186;11.554;2023-11-18T09:28:32;1.60;;;1.10;;
82554;SDS011;72219;48.186;11.554;2023-11-18T09:31:00;1.48;;;0.90;;
82554;SDS011;72219;48.186;11.554;2023-11-18T09:33:28;3.25;;;1.23;;
82554;SDS011;72219;48.186;11.554;2023-11-18T09:35:59;1.27;;;0.88;;
82554;SDS011;72219;48.186;11.554;2023-11-18T09:38:32;3.47;;;1.27;;
82554;SDS011;72219;48.186;11.554;2023-11-18T09:41:05;2.65;;;1.10;;
82554;SDS011;72219;48.186;11.554;2023-11-18T09:43:33;3.28;;;1.20;;
82554;SDS011;72219;48.186;11.554;2023-11-18T09:46:09;0.98;;;0.88;;
82554;SDS011;72219;48.186;11.554;2023-11-18T09:51:25;1.48;;;0.95;;
82554;SDS011;72219;48.186;11.554;2023-11-18T09:53:55;4.88;;;0.98;;
82554;SDS011;72219;48.186;11.554;2023-11-18T09:56:35;2.83;;;1.20;;
82554;SDS011;72219;48.186;11.554;2023-11-18T09:59:13;1.52;;;1.30;;
82554;SDS011;72219;48.186;11.554;2023-11-18T10:01:50;1.23;;;0.80;;
82554;SDS011;72219;48.186;11.554;2023-11-18T10:04:19;3.72;;;1.40;;
82554;SDS011;72219;48.186;11.554;2023-11-18T10:06:46;0.82;;;0.82;;
82554;SDS011;72219;48.186;11.554;2023-11-18T10:09:12;2.90;;;1.05;;
82554;SDS011;72219;48.186;11.554;2023-11-18T10:11:45;2.03;;;1.20;;
82554;SDS011;72219;48.186;11.554;2023-11-18T10:14:15;3.63;;;1.10;;
82554;SDS011;72219;48.186;11.554;2023-11-18T10:16:41;2.50;;;1.10;;
82554;SDS011;72219;48.186;11.554;2023-11-18T10:19:12;1.58;;;1.48;;
82554;SDS011;72219;48.186;11.554;2023-11-18T10:21:39;3.28;;;1.05;;
82554;SDS011;72219;48.186;11.554;2023-11-18T10:24:08;2.60;;;0.98;;
82554;SDS011;72219;48.186;11.554;2023-11-18T10:26:44;1.25;;;1.10;;
82554;SDS011;72219;48.186;11.554;2023-11-18T10:29:23;3.35;;;1.38;;
82554;SDS011;72219;48.186;11.554;2023-11-18T10:32:01;1.95;;;1.33;;
82554;SDS011;72219;48.186;11.554;2023-11-18T10:34:41;3.63;;;1.10;;
82554;SDS011;72219;48.186;11.554;2023-11-18T10:37:08;1.92;;;1.20;;
82554;SDS011;72219;48.186;11.554;2023-11-18T10:39:35;1.52;;;1.10;;
82554;SDS011;72219;48.186;11.554;2023-11-18T10:42:01;1.50;;;1.40;;
82554;SDS011;72219;48.186;11.554;2023-11-18T10:44:28;2.08;;;1.15;;
82554;SDS011;72219;48.186;11.554;2023-11-18T10:46:54;1.45;;;1.15;;
82554;SDS011;72219;48.186;11.554;2023-11-18T10:49:33;1.45;;;1.23;;
82554;SDS011;72219;48.186;11.554;2023-11-18T10:52:02;2.13;;;1.40;;
82554;SDS011;72219;48.186;11.554;2023-11-18T10:54:31;2.65;;;1.40;;
82554;SDS011;72219;48.186;11.554;2023-11-18T10:57:02;2.00;;;1.10;;
82554;SDS011;72219;48.186;11.554;2023-11-18T10:59:32;3.13;;;1.30;;
82554;SDS011;72219;48.186;11.554;2023-11-18T11:01:59;2.67;;;1.30;;
82554;SDS011;72219;48.186;11.554;2023-11-18T11:04:42;2.03;;;1.20;;
82554;SDS011;72219;48.186;11.554;2023-11-18T11:07:10;3.42;;;1.60;;
82554;SDS011;72219;48.186;11.554;2023-11-18T11:09:41;1.42;;;1.23;;
82554;SDS011;72219;48.186;11.554;2023-11-18T11:12:11;1.88;;;1.20;;
82554;SDS011;72219;48.186;11.554;2023-11-18T11:15:01;1.23;;;1.08;;
82554;SDS011;72219;48.186;11.554;2023-11-18T11:17:46;2.78;;;1.55;;
82554;SDS011;72219;48.186;11.554;2023-11-18T11:20:18;1.77;;;1.10;;
82554;SDS011;72219;48.186;11.554;2023-11-18T11:23:13;1.42;;;1.30;;
82554;SDS011;72219;48.186;11.554;2023-11-18T11:26:06;1.60;;;1.30;;
82554;SDS011;72219;48.186;11.554;2023-11-18T11:31:43;1.40;;;1.15;;
82554;SDS011;72219;48.186;11.554;2023-11-18T11:34:17;1.90;;;1.15;;
82554;SDS011;72219;48.186;11.554;2023-11-18T11:36:48;4.05;;;1.20;;
82554;SDS011;72219;48.186;11.554;2023-11-18T11:39:16;1.42;;;1.02;;
82554;SDS011;72219;48.186;11.554;2023-11-18T11:41:45;2.03;;;1.20;;
82554;SDS011;72219;48.186;11.554;2023-11-18T11:44:15;1.10;;;1.00;;
82554;SDS011;72219;48.186;11.554;2023-11-18T11:46:42;1.20;;;1.00;;
82554;SDS011;72219;48.186;11.554;2023-11-18T11:49:09;2.08;;;1.40;;
82554;SDS011;72219;48.186;11.554;2023-11-18T11:54:46;1.33;;;1.23;;
82554;SDS011;72219;48.186;11.554;2023-11-18T11:57:21;1.42;;;1.17;;
82554;SDS011;72219;48.186;11.554;2023-11-18T12:02:17;1.13;;;1.02;;
82554;SDS011;72219;48.186;11.554;2023-11-18T12:04:49;1.65;;;1.27;;
82554;SDS011;72219;48.186;11.554;2023-11-18T12:07:19;1.58;;;1.10;;
82554;SDS011;72219;48.186;11.554;2023-11-18T12:09:48;1.85;;;0.90;;
82554;SDS011;72219;48.186;11.554;2023-11-18T12:12:22;1.10;;;1.00;;
82554;SDS011;72219;48.186;11.554;2023-11-18T12:14:52;1.67;;;0.82;;
82554;SDS011;72219;48.186;11.554;2023-11-18T12:17:26;1.38;;;1.27;;
82554;SDS011;72219;48.186;11.554;2023-11-18T12:19:57;1.10;;;1.00;;
82554;SDS011;72219;48.186;11.554;2023-11-18T12:22:32;2.15;;;1.20;;
82554;SDS011;72219;48.186;11.554;2023-11-18T12:25:39;1.20;;;1.10;;
82554;SDS011;72219;48.186;11.554;2023-11-18T12:28:08;1.48;;;1.35;;
82554;SDS011;72219;48.186;11.554;2023-11-18T12:30:40;0.85;;;0.85;;
82554;SDS011;72219;48.186;11.554;2023-11-18T12:33:16;1.67;;;1.20;;
82554;SDS011;72219;48.186;11.554;2023-11-18T12:41:34;1.67;;;1.00;;
82554;SDS011;72219;48.186;11.554;2023-11-18T12:47:02;1.60;;;1.08;;
82554;SDS011;72219;48.186;11.554;2023-11-18T12:49:41;1.98;;;1.45;;
82554;SDS011;72219;48.186;11.554;2023-11-18T12:52:09;1.15;;;1.05;;
82554;SDS011;72219;48.186;11.554;2023-11-18T12:54:38;0.80;;;0.80;;
82554;SDS011;72219;48.186;11.554;2023-11-18T12:57:09;1.63;;;1.00;;
82554;SDS011;72219;48.186;11.554;2023-11-18T12:59:39;1.05;;;0.95;;
82554;SDS011;72219;48.186;11.554;2023-11-18T13:02:07;1.10;;;1.00;;
82554;SDS011;72219;48.186;11.554;2023-11-18T13:04:42;1.17;;;1.08;;
82554;SDS011;72219;48.186;11.554;2023-11-18T13:07:12;1.05;;;0.90;;
82554;SDS011;72219;48.186;11.554;2023-11-18T13:09:42;1.27;;;1.13;;
82554;SDS011;72219;48.186;11.554;2023-11-18T13:12:10;1.27;;;1.17;;
82554;SDS011;72219;48.186;11.554;2023-11-18T13:14:39;1.63;;;1.05;;
82554;SDS011;72219;48.186;11.554;2023-11-18T13:17:10;1.45;;;0.98;;
82554;SDS011;72219;48.186;11.554;2023-11-18T13:19:38;1.20;;;1.10;;
82554;SDS011;72219;48.186;11.554;2023-11-18T13:22:05;1.58;;;1.10;;
82554;SDS011;72219;48.186;11.554;2023-11-18T13:24:37;2.55;;;1.27;;
82554;SDS011;72219;48.186;11.554;2023-11-18T13:27:04;1.40;;;1.15;;
82554;SDS011;72219;48.186;11.554;2023-11-18T13:29:32;1.73;;;0.95;;
82554;SDS011;72219;48.186;11.554;2023-11-18T13:31:59;2.25;;;1.02;;
82554;SDS011;72219;48.186;11.554;2023-11-18T13:34:32;1.02;;;0.85;;
82554;SDS011;72219;48.186;11.554;2023-11-18T13:37:00;1.35;;;1.25;;
82554;SDS011;72219;48.186;11.554;2023-11-18T13:39:28;1.58;;;1.15;;
82554;SDS011;72219;48.186;11.554;2023-11-18T13:41:53;0.95;;;0.95;;
82554;SDS011;72219;48.186;11.554;2023-11-18T13:44:32;1.13;;;1.02;;
82554;SDS011;72219;48.186;11.554;2023-11-18T13:47:06;2.67;;;0.90;;
82554;SDS011;72219;48.186;11.554;2023-11-18T13:49:32;1.40;;;1.00;;
82554;SDS011;72219;48.186;11.554;2023-11-18T13:52:05;1.23;;;1.00;;
82554;SDS011;72219;48.186;11.554;2023-11-18T13:54:36;1.20;;;0.90;;
82554;SDS011;72219;48.186;11.554;2023-11-18T13:57:02;1.75;;;1.10;;
82554;SDS011;72219;48.186;11.554;2023-11-18T13:59:30;1.77;;;1.23;;
82554;SDS011;72219;48.186;11.554;2023-11-18T14:01:58;1.13;;;0.98;;
82554;SDS011;72219;48.186;11.554;2023-11-18T14:04:27;1.58;;;1.17;;
82554;SDS011;72219;48.186;11.554;2023-11-18T14:06:57;1.00;;;0.95;;
82554;SDS011;72219;48.186;11.554;2023-11-18T14:09:25;2.45;;;1.00;;
82554;SDS011;72219;48.186;11.554;2023-11-18T14:11:52;1.05;;;0.80;;
82554;SDS011;72219;48.186;11.554;2023-11-18T14:14:20;1.92;;;1.10;;
82554;SDS011;72219;48.186;11.554;2023-11-18T14:16:48;1.20;;;1.10;;
82554;SDS011;72219;48.186;11.554;2023-11-18T14:19:14;1.27;;;1.10;;
82554;SDS011;72219;48.186;11.554;2023-11-18T14:21:40;1.25;;;1.13;;
82554;SDS011;72219;48.186;11.554;2023-11-18T14:24:07;0.90;;;0.90;;
82554;SDS011;72219;48.186;11.554;2023-11-18T14:26:35;1.88;;;1.10;;
82554;SDS011;72219;48.186;11.554;2023-11-18T14:29:01;0.70;;;0.70;;
82554;SDS011;72219;48.186;11.554;2023-11-18T14:31:28;0.70;;;0.70;;
82554;SDS011;72219;48.186;11.554;2023-11-18T14:33:56;1.02;;;0.95;;
82554;SDS011;72219;48.186;11.554;2023-11-18T14:36:24;1.95;;;1.08;;
82554;SDS011;72219;48.186;11.554;2023-11-18T14:38:53;0.82;;;0.82;;
82554;SDS011;72219;48.186;11.554;2023-11-18T14:41:20;1.00;;;0.90;;
82554;SDS011;72219;48.186;11.554;2023-11-18T14:43:50;1.00;;;0.90;;
82554;SDS011;72219;48.186;11.554;2023-11-18T14:46:16;1.25;;;0.90;;
82554;SDS011;72219;48.186;11.554;2023-11-18T14:48:43;1.20;;;1.10;;
82554;SDS011;72219;48.186;11.554;2023-11-18T14:51:09;1.23;;;1.13;;
82554;SDS011;72219;48.186;11.554;2023-11-18T14:53:35;1.10;;;1.00;;
82554;SDS011;72219;48.186;11.554;2023-11-18T14:56:01;1.38;;;0.90;;
82554;SDS011;72219;48.186;11.554;2023-11-18T14:58:29;0.98;;;0.90;;
82554;SDS011;72219;48.186;11.554;2023-11-18T15:00:55;0.80;;;0.80;;
82554;SDS011;72219;48.186;11.554;2023-11-18T15:03:22;1.45;;;1.00;;
82554;SDS011;72219;48.186;11.554;2023-11-18T15:05:47;1.23;;;0.90;;